sensor_id;sensor_type;location;lat;lon;timestamp;pressure;altitude;pressure_sealevel;temperature;humidity
72414;BME280;60995;52.154;4.498;2022-11-03T00:01:20;101168.25;;;13.25;66.27
72414;BME280;60995;52.154;4.498;2022-11-03T00:03:36;101172.53;;;13.28;66.23
72414;BME280;60995;52.154;4.498;2022-11-03T00:05:52;101166.63;;;13.32;66.47
72414;BME280;60995;52.154;4.498;2022-11-03T00:08:21;101154.31;;;13.28;66.22
72414;BME280;60995;52.154;4.498;2022-11-03T00:10:37;101153.47;;;13.37;66.22
72414;BME280;60995;52.154;4.498;2022-11-03T00:12:53;101149.44;;;13.32;66.66
72414;BME280;60995;52.154;4.498;2022-11-03T00:15:09;101144.44;;;13.27;66.86
72414;BME280;60995;52.154;4.498;2022-11-03T00:17:25;101139.84;;;13.18;67.13
72414;BME280;60995;52.154;4.498;2022-11-03T00:19:41;101152.31;;;13.20;67.33
72414;BME280;60995;52.154;4.498;2022-11-03T00:21:57;101151.91;;;13.25;67.03
72414;BME280;60995;52.154;4.498;2022-11-03T00:24:14;101141.31;;;13.12;67.52
72414;BME280;60995;52.154;4.498;2022-11-03T00:26:30;101138.28;;;13.25;67.25
72414;BME280;60995;52.154;4.498;2022-11-03T00:28:48;101138.28;;;13.15;67.33
72414;BME280;60995;52.154;4.498;2022-11-03T00:31:25;101153.91;;;13.23;67.45
72414;BME280;60995;52.154;4.498;2022-11-03T00:33:41;101150.47;;;13.21;67.55
72414;BME280;60995;52.154;4.498;2022-11-03T00:35:58;101142.72;;;13.26;67.38
72414;BME280;60995;52.154;4.498;2022-11-03T00:38:16;101141.00;;;13.25;67.44
72414;BME280;60995;52.154;4.498;2022-11-03T00:40:32;101131.22;;;13.32;67.44
72414;BME280;60995;52.154;4.498;2022-11-03T00:42:48;101138.28;;;13.25;67.81
72414;BME280;60995;52.154;4.498;2022-11-03T00:45:04;101128.22;;;13.26;67.70
72414;BME280;60995;52.154;4.498;2022-11-03T00:47:20;101122.50;;;13.19;68.04
72414;BME280;60995;52.154;4.498;2022-11-03T00:49:36;101134.97;;;13.31;67.85
72414;BME280;60995;52.154;4.498;2022-11-03T00:51:52;101134.38;;;13.37;67.75
72414;BME280;60995;52.154;4.498;2022-11-03T00:54:08;101115.44;;;13.36;67.74
72414;BME280;60995;52.154;4.498;2022-11-03T00:56:26;101127.59;;;13.51;67.36
72414;BME280;60995;52.154;4.498;2022-11-03T00:58:44;101125.34;;;13.47;67.56
72414;BME280;60995;52.154;4.498;2022-11-03T01:01:01;101119.75;;;13.38;68.02
72414;BME280;60995;52.154;4.498;2022-11-03T01:03:19;101126.63;;;13.43;67.97
72414;BME280;60995;52.154;4.498;2022-11-03T01:05:42;101127.50;;;13.43;68.01
72414;BME280;60995;52.154;4.498;2022-11-03T01:08:17;101117.75;;;13.40;68.09
72414;BME280;60995;52.154;4.498;2022-11-03T01:10:34;101108.66;;;13.50;68.14
72414;BME280;60995;52.154;4.498;2022-11-03T01:12:51;101102.25;;;13.41;68.17
72414;BME280;60995;52.154;4.498;2022-11-03T01:15:07;101103.69;;;13.35;68.59
72414;BME280;60995;52.154;4.498;2022-11-03T01:17:24;101097.25;;;13.27;69.22
72414;BME280;60995;52.154;4.498;2022-11-03T01:19:42;101087.91;;;13.29;69.25
72414;BME280;60995;52.154;4.498;2022-11-03T01:21:58;101091.94;;;13.25;69.29
72414;BME280;60995;52.154;4.498;2022-11-03T01:24:14;101093.69;;;13.26;69.21
72414;BME280;60995;52.154;4.498;2022-11-03T01:26:30;101083.78;;;13.25;69.61
72414;BME280;60995;52.154;4.498;2022-11-03T01:28:47;101087.06;;;13.29;69.32
72414;BME280;60995;52.154;4.498;2022-11-03T01:31:07;101074.78;;;13.15;70.12
72414;BME280;60995;52.154;4.498;2022-11-03T01:33:32;101077.59;;;13.23;69.92
72414;BME280;60995;52.154;4.498;2022-11-03T01:35:51;101061.59;;;13.10;70.14
72414;BME280;60995;52.154;4.498;2022-11-03T01:38:07;101070.00;;;13.27;70.03
72414;BME280;60995;52.154;4.498;2022-11-03T01:40:23;101078.50;;;13.14;70.50
72414;BME280;60995;52.154;4.498;2022-11-03T01:42:39;101072.16;;;13.23;70.18
72414;BME280;60995;52.154;4.498;2022-11-03T01:44:56;101070.06;;;13.17;70.44
72414;BME280;60995;52.154;4.498;2022-11-03T01:49:44;101074.19;;;13.21;70.48
72414;BME280;60995;52.154;4.498;2022-11-03T01:52:33;101058.34;;;13.44;70.02
72414;BME280;60995;52.154;4.498;2022-11-03T01:55:01;101047.34;;;13.26;70.34
72414;BME280;60995;52.154;4.498;2022-11-03T01:57:22;101056.94;;;13.30;70.37
72414;BME280;60995;52.154;4.498;2022-11-03T01:59:41;101050.75;;;13.28;70.58
72414;BME280;60995;52.154;4.498;2022-11-03T02:02:01;101044.09;;;13.13;71.08
72414;BME280;60995;52.154;4.498;2022-11-03T02:04:39;101053.22;;;13.31;70.48
72414;BME280;60995;52.154;4.498;2022-11-03T02:09:29;101032.31;;;13.22;70.93
72414;BME280;60995;52.154;4.498;2022-11-03T02:11:45;101033.19;;;13.13;71.06
72414;BME280;60995;52.154;4.498;2022-11-03T02:14:20;101030.34;;;13.14;71.12
72414;BME280;60995;52.154;4.498;2022-11-03T02:16:37;101016.50;;;13.26;70.66
72414;BME280;60995;52.154;4.498;2022-11-03T02:18:56;101013.75;;;13.07;71.20
72414;BME280;60995;52.154;4.498;2022-11-03T02:21:26;101015.16;;;13.12;71.38
72414;BME280;60995;52.154;4.498;2022-11-03T02:23:51;101011.41;;;13.13;71.58
72414;BME280;60995;52.154;4.498;2022-11-03T02:26:17;101009.97;;;13.08;71.70
72414;BME280;60995;52.154;4.498;2022-11-03T02:28:34;101011.00;;;13.07;71.49
72414;BME280;60995;52.154;4.498;2022-11-03T02:31:01;101007.25;;;13.08;71.55
72414;BME280;60995;52.154;4.498;2022-11-03T02:35:53;100997.50;;;13.16;71.55
72414;BME280;60995;52.154;4.498;2022-11-03T02:38:18;100989.75;;;13.11;71.76
72414;BME280;60995;52.154;4.498;2022-11-03T02:40:40;100996.56;;;12.97;72.27
72414;BME280;60995;52.154;4.498;2022-11-03T02:43:01;100982.47;;;13.12;71.72
72414;BME280;60995;52.154;4.498;2022-11-03T02:45:20;100980.34;;;13.05;72.02
72414;BME280;60995;52.154;4.498;2022-11-03T02:47:39;100972.25;;;13.14;71.99
72414;BME280;60995;52.154;4.498;2022-11-03T02:49:59;100962.66;;;13.10;72.00
72414;BME280;60995;52.154;4.498;2022-11-03T02:57:44;100945.88;;;13.14;72.02
72414;BME280;60995;52.154;4.498;2022-11-03T03:00:09;100941.69;;;13.20;71.90
72414;BME280;60995;52.154;4.498;2022-11-03T03:02:28;100941.69;;;13.20;72.19
72414;BME280;60995;52.154;4.498;2022-11-03T03:04:55;100924.22;;;13.13;72.59
72414;BME280;60995;52.154;4.498;2022-11-03T03:07:16;100921.03;;;13.17;72.54
72414;BME280;60995;52.154;4.498;2022-11-03T03:09:40;100923.47;;;13.20;72.10
72414;BME280;60995;52.154;4.498;2022-11-03T03:12:00;100929.25;;;13.35;71.78
72414;BME280;60995;52.154;4.498;2022-11-03T03:14:19;100931.38;;;13.14;72.28
72414;BME280;60995;52.154;4.498;2022-11-03T03:16:58;100924.22;;;13.13;72.55
72414;BME280;60995;52.154;4.498;2022-11-03T03:21:38;100917.06;;;13.12;72.82
72414;BME280;60995;52.154;4.498;2022-11-03T03:24:05;100917.31;;;13.18;72.56
72414;BME280;60995;52.154;4.498;2022-11-03T03:26:32;100905.31;;;13.11;72.84
72414;BME280;60995;52.154;4.498;2022-11-03T03:28:59;100918.84;;;13.03;73.46
72414;BME280;60995;52.154;4.498;2022-11-03T03:31:37;100911.63;;;13.12;73.05
72414;BME280;60995;52.154;4.498;2022-11-03T03:33:57;100924.63;;;13.18;72.80
72414;BME280;60995;52.154;4.498;2022-11-03T03:36:14;100914.44;;;13.20;72.54
72414;BME280;60995;52.154;4.498;2022-11-03T03:38:41;100912.72;;;13.19;72.63
72414;BME280;60995;52.154;4.498;2022-11-03T03:41:01;100896.38;;;13.19;72.89
72414;BME280;60995;52.154;4.498;2022-11-03T03:43:19;100892.31;;;13.23;72.58
72414;BME280;60995;52.154;4.498;2022-11-03T03:45:38;100894.91;;;13.24;72.60
72414;BME280;60995;52.154;4.498;2022-11-03T03:47:55;100902.59;;;13.39;72.33
72414;BME280;60995;52.154;4.498;2022-11-03T03:50:11;100899.38;;;13.44;72.18
72414;BME280;60995;52.154;4.498;2022-11-03T03:52:28;100894.16;;;13.50;72.08
72414;BME280;60995;52.154;4.498;2022-11-03T03:54:45;100889.19;;;13.46;72.06
72414;BME280;60995;52.154;4.498;2022-11-03T03:57:04;100887.25;;;13.56;71.54
72414;BME280;60995;52.154;4.498;2022-11-03T03:59:24;100889.59;;;13.51;71.64
72414;BME280;60995;52.154;4.498;2022-11-03T04:01:40;100887.88;;;13.50;71.64
72414;BME280;60995;52.154;4.498;2022-11-03T04:03:56;100889.38;;;13.34;72.28
72414;BME280;60995;52.154;4.498;2022-11-03T04:06:12;100884.78;;;13.35;72.55
72414;BME280;60995;52.154;4.498;2022-11-03T04:08:28;100872.69;;;13.47;72.21
72414;BME280;60995;52.154;4.498;2022-11-03T04:10:44;100875.59;;;13.36;72.56
72414;BME280;60995;52.154;4.498;2022-11-03T04:13:21;100887.25;;;13.56;72.05
72414;BME280;60995;52.154;4.498;2022-11-03T04:15:55;100881.03;;;13.46;72.11
72414;BME280;60995;52.154;4.498;2022-11-03T04:18:30;100878.91;;;13.39;72.28
72414;BME280;60995;52.154;4.498;2022-11-03T04:21:05;100875.88;;;13.43;72.40
72414;BME280;60995;52.154;4.498;2022-11-03T04:23:40;100865.84;;;13.43;72.24
72414;BME280;60995;52.154;4.498;2022-11-03T04:25:56;100869.56;;;13.42;72.54
72414;BME280;60995;52.154;4.498;2022-11-03T04:28:14;100867.69;;;13.43;72.60
72414;BME280;60995;52.154;4.498;2022-11-03T04:30:30;100867.69;;;13.43;72.47
72414;BME280;60995;52.154;4.498;2022-11-03T04:32:47;100858.13;;;13.38;72.96
72414;BME280;60995;52.154;4.498;2022-11-03T04:35:21;100856.84;;;13.33;73.15
72414;BME280;60995;52.154;4.498;2022-11-03T04:37:38;100846.72;;;13.25;73.09
72414;BME280;60995;52.154;4.498;2022-11-03T04:39:57;100847.78;;;13.32;73.09
72414;BME280;60995;52.154;4.498;2022-11-03T04:42:18;100841.97;;;13.27;73.18
72414;BME280;60995;52.154;4.498;2022-11-03T04:44:36;100849.50;;;13.33;73.08
72414;BME280;60995;52.154;4.498;2022-11-03T04:46:52;100838.94;;;13.30;73.15
72414;BME280;60995;52.154;4.498;2022-11-03T04:49:10;100846.88;;;13.23;73.61
72414;BME280;60995;52.154;4.498;2022-11-03T04:51:30;100832.78;;;13.28;73.54
72414;BME280;60995;52.154;4.498;2022-11-03T04:53:51;100832.09;;;13.26;73.64
72414;BME280;60995;52.154;4.498;2022-11-03T04:56:15;100835.81;;;13.25;73.84
72414;BME280;60995;52.154;4.498;2022-11-03T04:58:34;100830.69;;;13.22;74.04
72414;BME280;60995;52.154;4.498;2022-11-03T05:00:52;100824.31;;;13.31;74.05
72414;BME280;60995;52.154;4.498;2022-11-03T05:03:16;100818.75;;;13.23;74.34
72414;BME280;60995;52.154;4.498;2022-11-03T05:05:37;100815.56;;;13.10;75.22
72414;BME280;60995;52.154;4.498;2022-11-03T05:07:54;100810.19;;;13.18;74.54
72414;BME280;60995;52.154;4.498;2022-11-03T05:10:11;100799.94;;;13.30;74.25
72414;BME280;60995;52.154;4.498;2022-11-03T05:12:31;100815.09;;;13.32;74.42
72414;BME280;60995;52.154;4.498;2022-11-03T05:14:48;100802.13;;;13.26;74.67
72414;BME280;60995;52.154;4.498;2022-11-03T05:17:21;100802.19;;;13.34;74.44
72414;BME280;60995;52.154;4.498;2022-11-03T05:19:40;100798.16;;;13.38;74.42
72414;BME280;60995;52.154;4.498;2022-11-03T05:21:58;100781.22;;;13.35;74.49
72414;BME280;60995;52.154;4.498;2022-11-03T05:24:15;100776.94;;;13.32;74.78
72414;BME280;60995;52.154;4.498;2022-11-03T05:26:35;100790.69;;;13.40;74.60
72414;BME280;60995;52.154;4.498;2022-11-03T05:28:55;100776.06;;;13.42;74.66
72414;BME280;60995;52.154;4.498;2022-11-03T05:31:26;100770.16;;;13.54;74.10
72414;BME280;60995;52.154;4.498;2022-11-03T05:33:47;100769.81;;;13.49;74.29
72414;BME280;60995;52.154;4.498;2022-11-03T05:36:10;100769.44;;;13.44;74.65
72414;BME280;60995;52.154;4.498;2022-11-03T05:38:31;100766.72;;;13.44;74.72
72414;BME280;60995;52.154;4.498;2022-11-03T05:40:51;100777.28;;;13.47;74.57
72414;BME280;60995;52.154;4.498;2022-11-03T05:43:09;100759.72;;;13.42;74.87
72414;BME280;60995;52.154;4.498;2022-11-03T05:45:31;100763.25;;;13.60;74.19
72414;BME280;60995;52.154;4.498;2022-11-03T05:47:49;100771.00;;;13.47;74.71
72414;BME280;60995;52.154;4.498;2022-11-03T05:50:18;100750.94;;;13.56;74.63
72414;BME280;60995;52.154;4.498;2022-11-03T05:52:36;100746.19;;;13.58;74.42
72414;BME280;60995;52.154;4.498;2022-11-03T05:54:53;100736.06;;;13.50;74.60
72414;BME280;60995;52.154;4.498;2022-11-03T05:57:13;100750.63;;;13.59;74.52
72414;BME280;60995;52.154;4.498;2022-11-03T05:59:30;100752.34;;;13.60;74.26
72414;BME280;60995;52.154;4.498;2022-11-03T06:01:46;100747.06;;;13.59;74.19
72414;BME280;60995;52.154;4.498;2022-11-03T06:06:37;100748.69;;;13.51;74.83
72414;BME280;60995;52.154;4.498;2022-11-03T06:08:54;100753.22;;;13.43;75.11
72414;BME280;60995;52.154;4.498;2022-11-03T06:11:18;100742.31;;;13.43;75.23
72414;BME280;60995;52.154;4.498;2022-11-03T06:13:40;100736.19;;;13.40;75.30
72414;BME280;60995;52.154;4.498;2022-11-03T06:15:57;100737.41;;;13.28;75.86
72414;BME280;60995;52.154;4.498;2022-11-03T06:18:20;100729.63;;;13.51;75.17
72414;BME280;60995;52.154;4.498;2022-11-03T06:20:38;100724.66;;;13.47;75.33
72414;BME280;60995;52.154;4.498;2022-11-03T06:22:55;100734.84;;;13.45;75.29
72414;BME280;60995;52.154;4.498;2022-11-03T06:25:13;100733.84;;;13.46;75.46
72414;BME280;60995;52.154;4.498;2022-11-03T06:27:37;100723.78;;;13.46;75.39
72414;BME280;60995;52.154;4.498;2022-11-03T06:30:18;100733.50;;;13.49;75.23
72414;BME280;60995;52.154;4.498;2022-11-03T06:32:38;100724.66;;;13.47;75.53
72414;BME280;60995;52.154;4.498;2022-11-03T06:34:55;100711.41;;;13.52;75.21
72414;BME280;60995;52.154;4.498;2022-11-03T06:37:23;100721.94;;;13.47;75.32
72414;BME280;60995;52.154;4.498;2022-11-03T06:39:42;100717.78;;;13.43;75.69
72414;BME280;60995;52.154;4.498;2022-11-03T06:41:58;100715.78;;;13.45;75.47
72414;BME280;60995;52.154;4.498;2022-11-03T06:44:26;100714.13;;;13.52;74.99
72414;BME280;60995;52.154;4.498;2022-11-03T06:46:43;100719.50;;;13.44;75.64
72414;BME280;60995;52.154;4.498;2022-11-03T06:48:59;100708.06;;;13.40;75.51
72414;BME280;60995;52.154;4.498;2022-11-03T06:51:19;100715.81;;;13.35;76.13
72414;BME280;60995;52.154;4.498;2022-11-03T06:53:37;100709.09;;;13.21;76.38
72414;BME280;60995;52.154;4.498;2022-11-03T06:55:53;100706.66;;;13.18;76.41
72414;BME280;60995;52.154;4.498;2022-11-03T06:58:27;100699.38;;;13.36;75.75
72414;BME280;60995;52.154;4.498;2022-11-03T07:00:47;100694.75;;;13.19;76.32
72414;BME280;60995;52.154;4.498;2022-11-03T07:03:09;100691.88;;;13.20;76.47
72414;BME280;60995;52.154;4.498;2022-11-03T07:05:33;100690.06;;;13.29;76.31
72414;BME280;60995;52.154;4.498;2022-11-03T07:07:51;100691.03;;;13.20;76.67
72414;BME280;60995;52.154;4.498;2022-11-03T07:10:10;100690.94;;;13.30;76.33
72414;BME280;60995;52.154;4.498;2022-11-03T07:12:27;100692.03;;;13.37;75.89
72414;BME280;60995;52.154;4.498;2022-11-03T07:14:43;100689.44;;;13.35;76.50
72414;BME280;60995;52.154;4.498;2022-11-03T07:17:00;100697.06;;;13.50;75.68
72414;BME280;60995;52.154;4.498;2022-11-03T07:19:18;100692.41;;;13.42;76.02
72414;BME280;60995;52.154;4.498;2022-11-03T07:21:39;100690.22;;;13.46;75.73
72414;BME280;60995;52.154;4.498;2022-11-03T07:24:01;100687.13;;;13.40;75.86
72414;BME280;60995;52.154;4.498;2022-11-03T07:26:19;100687.28;;;13.39;76.33
72414;BME280;60995;52.154;4.498;2022-11-03T07:28:35;100688.50;;;13.45;75.93
72414;BME280;60995;52.154;4.498;2022-11-03T07:30:53;100677.81;;;13.51;75.79
72414;BME280;60995;52.154;4.498;2022-11-03T07:33:12;100682.06;;;13.46;75.90
72414;BME280;60995;52.154;4.498;2022-11-03T07:35:39;100696.47;;;13.64;75.15
72414;BME280;60995;52.154;4.498;2022-11-03T07:37:57;100686.91;;;13.60;75.13
72414;BME280;60995;52.154;4.498;2022-11-03T07:40:20;100693.94;;;13.71;74.78
72414;BME280;60995;52.154;4.498;2022-11-03T07:42:38;100677.03;;;13.94;74.20
72414;BME280;60995;52.154;4.498;2022-11-03T07:44:54;100684.69;;;13.90;74.09
72414;BME280;60995;52.154;4.498;2022-11-03T07:47:11;100680.25;;;13.89;73.74
72414;BME280;60995;52.154;4.498;2022-11-03T07:49:30;100679.72;;;13.85;74.07
72414;BME280;60995;52.154;4.498;2022-11-03T07:51:46;100676.81;;;13.87;73.87
72414;BME280;60995;52.154;4.498;2022-11-03T07:54:07;100680.59;;;13.86;74.20
72414;BME280;60995;52.154;4.498;2022-11-03T07:56:41;100671.63;;;14.10;73.18
72414;BME280;60995;52.154;4.498;2022-11-03T08:01:27;100658.50;;;14.05;73.81
72414;BME280;60995;52.154;4.498;2022-11-03T08:03:45;100659.00;;;14.09;73.86
72414;BME280;60995;52.154;4.498;2022-11-03T08:06:02;100648.97;;;14.10;73.47
72414;BME280;60995;52.154;4.498;2022-11-03T08:08:19;100641.78;;;14.09;73.50
72414;BME280;60995;52.154;4.498;2022-11-03T08:10:35;100646.97;;;14.28;73.43
72414;BME280;60995;52.154;4.498;2022-11-03T08:12:50;100637.41;;;14.32;73.15
72414;BME280;60995;52.154;4.498;2022-11-03T08:15:07;100626.59;;;14.06;74.06
72414;BME280;60995;52.154;4.498;2022-11-03T08:17:23;100622.03;;;14.15;74.14
72414;BME280;60995;52.154;4.498;2022-11-03T08:19:39;100618.25;;;14.07;74.30
72414;BME280;60995;52.154;4.498;2022-11-03T08:21:56;100608.34;;;13.98;74.50
72414;BME280;60995;52.154;4.498;2022-11-03T08:24:12;100612.78;;;14.07;74.29
72414;BME280;60995;52.154;4.498;2022-11-03T08:26:28;100596.22;;;13.93;74.81
72414;BME280;60995;52.154;4.498;2022-11-03T08:28:44;100607.31;;;13.99;74.78
72414;BME280;60995;52.154;4.498;2022-11-03T08:31:00;100586.50;;;13.98;74.82
72414;BME280;60995;52.154;4.498;2022-11-03T08:33:19;100583.44;;;14.01;74.83
72414;BME280;60995;52.154;4.498;2022-11-03T08:35:35;100578.53;;;14.05;74.65
72414;BME280;60995;52.154;4.498;2022-11-03T08:37:51;100579.69;;;13.94;75.30
72414;BME280;60995;52.154;4.498;2022-11-03T08:40:07;100570.19;;;14.15;74.72
72414;BME280;60995;52.154;4.498;2022-11-03T08:42:24;100566.75;;;14.04;74.97
72414;BME280;60995;52.154;4.498;2022-11-03T08:44:40;100569.16;;;14.07;75.00
72414;BME280;60995;52.154;4.498;2022-11-03T08:46:56;100559.91;;;13.92;75.49
72414;BME280;60995;52.154;4.498;2022-11-03T08:49:12;100550.22;;;14.06;75.30
72414;BME280;60995;52.154;4.498;2022-11-03T08:51:28;100551.78;;;14.25;74.39
72414;BME280;60995;52.154;4.498;2022-11-03T08:53:44;100548.91;;;14.27;74.26
72414;BME280;60995;52.154;4.498;2022-11-03T08:56:01;100552.31;;;14.37;74.05
72414;BME280;60995;52.154;4.498;2022-11-03T08:58:17;100558.81;;;14.61;73.31
72414;BME280;60995;52.154;4.498;2022-11-03T09:00:33;100537.81;;;14.61;73.25
72414;BME280;60995;52.154;4.498;2022-11-03T09:02:50;100527.91;;;14.52;73.25
72414;BME280;60995;52.154;4.498;2022-11-03T09:05:06;100532.72;;;14.50;73.39
72414;BME280;60995;52.154;4.498;2022-11-03T09:07:23;100516.31;;;14.50;73.46
72414;BME280;60995;52.154;4.498;2022-11-03T09:09:39;100522.84;;;14.65;72.65
72414;BME280;60995;52.154;4.498;2022-11-03T09:11:55;100513.59;;;14.83;72.27
72414;BME280;60995;52.154;4.498;2022-11-03T09:14:11;100500.94;;;14.90;71.82
72414;BME280;60995;52.154;4.498;2022-11-03T09:16:27;100501.47;;;14.85;71.81
72414;BME280;60995;52.154;4.498;2022-11-03T09:18:43;100502.63;;;14.99;71.41
72414;BME280;60995;52.154;4.498;2022-11-03T09:21:00;100494.41;;;15.08;71.41
72414;BME280;60995;52.154;4.498;2022-11-03T09:23:16;100496.03;;;15.25;70.27
72414;BME280;60995;52.154;4.498;2022-11-03T09:25:32;100499.97;;;15.31;70.41
72414;BME280;60995;52.154;4.498;2022-11-03T09:27:48;100490.72;;;15.32;69.94
72414;BME280;60995;52.154;4.498;2022-11-03T09:30:04;100479.72;;;15.09;70.54
72414;BME280;60995;52.154;4.498;2022-11-03T09:32:21;100497.50;;;14.96;70.77
72414;BME280;60995;52.154;4.498;2022-11-03T09:34:37;100482.34;;;15.33;69.69
72414;BME280;60995;52.154;4.498;2022-11-03T09:36:53;100466.34;;;15.22;69.62
72414;BME280;60995;52.154;4.498;2022-11-03T09:39:09;100463.97;;;15.19;69.84
72414;BME280;60995;52.154;4.498;2022-11-03T09:41:25;100476.38;;;14.90;70.66
72414;BME280;60995;52.154;4.498;2022-11-03T09:43:45;100464.66;;;15.13;70.07
72414;BME280;60995;52.154;4.498;2022-11-03T09:46:02;100465.31;;;15.23;69.60
72414;BME280;60995;52.154;4.498;2022-11-03T09:48:18;100460.53;;;15.57;68.62
72414;BME280;60995;52.154;4.498;2022-11-03T09:50:34;100456.50;;;15.44;69.11
72414;BME280;60995;52.154;4.498;2022-11-03T09:52:51;100461.44;;;15.49;68.49
72414;BME280;60995;52.154;4.498;2022-11-03T09:55:13;100451.13;;;15.91;67.15
72414;BME280;60995;52.154;4.498;2022-11-03T09:57:32;100430.16;;;15.75;67.27
72414;BME280;60995;52.154;4.498;2022-11-03T09:59:48;100438.28;;;15.60;67.88
72414;BME280;60995;52.154;4.498;2022-11-03T10:02:11;100434.78;;;15.74;67.49
72414;BME280;60995;52.154;4.498;2022-11-03T10:04:40;100438.03;;;15.69;67.45
72414;BME280;60995;52.154;4.498;2022-11-03T10:06:56;100428.75;;;15.87;67.23
72414;BME280;60995;52.154;4.498;2022-11-03T10:09:14;100433.78;;;15.67;67.40
72414;BME280;60995;52.154;4.498;2022-11-03T10:11:32;100423.50;;;15.46;68.09
72414;BME280;60995;52.154;4.498;2022-11-03T10:13:51;100417.06;;;15.38;68.85
72414;BME280;60995;52.154;4.498;2022-11-03T10:16:20;100406.31;;;15.37;68.68
72414;BME280;60995;52.154;4.498;2022-11-03T10:18:38;100395.13;;;15.47;68.30
72414;BME280;60995;52.154;4.498;2022-11-03T10:20:54;100402.56;;;15.61;67.52
72414;BME280;60995;52.154;4.498;2022-11-03T10:23:11;100395.38;;;15.60;67.17
72414;BME280;60995;52.154;4.498;2022-11-03T10:25:34;100390.81;;;15.76;66.96
72414;BME280;60995;52.154;4.498;2022-11-03T10:28:10;100380.25;;;15.73;66.67
72414;BME280;60995;52.154;4.498;2022-11-03T10:30:34;100382.69;;;15.67;66.66
72414;BME280;60995;52.154;4.498;2022-11-03T10:33:03;100390.44;;;15.87;66.08
72414;BME280;60995;52.154;4.498;2022-11-03T10:35:45;100380.97;;;15.66;66.67
72414;BME280;60995;52.154;4.498;2022-11-03T10:38:19;100383.25;;;15.86;65.59
72414;BME280;60995;52.154;4.498;2022-11-03T10:40:37;100369.75;;;15.61;65.40
72414;BME280;60995;52.154;4.498;2022-11-03T10:42:56;100361.59;;;15.53;66.28
72414;BME280;60995;52.154;4.498;2022-11-03T10:45:18;100373.75;;;15.74;65.96
72414;BME280;60995;52.154;4.498;2022-11-03T10:47:35;100353.22;;;15.78;65.41
72414;BME280;60995;52.154;4.498;2022-11-03T10:49:51;100358.44;;;15.87;64.95
72414;BME280;60995;52.154;4.498;2022-11-03T10:54:35;100343.94;;;16.02;64.23
72414;BME280;60995;52.154;4.498;2022-11-03T10:56:52;100335.22;;;15.83;64.29
72414;BME280;60995;52.154;4.498;2022-11-03T10:59:11;100338.06;;;15.90;64.26
72414;BME280;60995;52.154;4.498;2022-11-03T11:01:32;100327.19;;;16.50;62.38
72414;BME280;60995;52.154;4.498;2022-11-03T11:03:48;100322.75;;;16.49;62.35
72414;BME280;60995;52.154;4.498;2022-11-03T11:06:04;100332.09;;;16.84;61.29
72414;BME280;60995;52.154;4.498;2022-11-03T11:08:21;100339.19;;;16.49;61.53
72414;BME280;60995;52.154;4.498;2022-11-03T11:10:38;100339.69;;;16.67;60.93
72414;BME280;60995;52.154;4.498;2022-11-03T11:15:40;100318.53;;;17.13;59.79
72414;BME280;60995;52.154;4.498;2022-11-03T11:17:58;100326.00;;;17.84;57.90
72414;BME280;60995;52.154;4.498;2022-11-03T11:22:38;100308.50;;;17.85;58.14
72414;BME280;60995;52.154;4.498;2022-11-03T11:24:55;100304.59;;;17.94;57.54
72414;BME280;60995;52.154;4.498;2022-11-03T11:29:48;100297.59;;;17.70;58.08
72414;BME280;60995;52.154;4.498;2022-11-03T11:34:59;100282.13;;;17.19;59.65
72414;BME280;60995;52.154;4.498;2022-11-03T11:46:53;100251.63;;;16.56;60.74
72414;BME280;60995;52.154;4.498;2022-11-03T11:51:27;100242.31;;;16.50;61.43
72414;BME280;60995;52.154;4.498;2022-11-03T11:53:49;100233.63;;;16.61;60.61
72414;BME280;60995;52.154;4.498;2022-11-03T11:56:12;100219.44;;;16.73;60.78
72414;BME280;60995;52.154;4.498;2022-11-03T12:00:54;100210.81;;;16.24;61.87
72414;BME280;60995;52.154;4.498;2022-11-03T12:03:12;100207.97;;;16.32;61.55
72414;BME280;60995;52.154;4.498;2022-11-03T12:05:33;100204.41;;;16.17;61.98
72414;BME280;60995;52.154;4.498;2022-11-03T12:07:50;100204.50;;;16.24;61.65
72414;BME280;60995;52.154;4.498;2022-11-03T12:10:19;100206.19;;;16.10;62.31
72414;BME280;60995;52.154;4.498;2022-11-03T12:12:37;100195.75;;;15.98;62.67
72414;BME280;60995;52.154;4.498;2022-11-03T12:14:53;100191.59;;;16.02;62.92
72414;BME280;60995;52.154;4.498;2022-11-03T12:19:35;100174.84;;;16.12;62.75
72414;BME280;60995;52.154;4.498;2022-11-03T12:21:51;100166.56;;;16.20;62.50
72414;BME280;60995;52.154;4.498;2022-11-03T12:27:15;100175.13;;;16.32;62.09
72414;BME280;60995;52.154;4.498;2022-11-03T12:29:33;100181.94;;;16.07;62.42
72414;BME280;60995;52.154;4.498;2022-11-03T12:31:49;100171.00;;;15.92;62.77
72414;BME280;60995;52.154;4.498;2022-11-03T12:34:05;100171.94;;;16.14;62.17
72414;BME280;60995;52.154;4.498;2022-11-03T12:36:21;100157.97;;;16.09;61.98
72414;BME280;60995;52.154;4.498;2022-11-03T12:38:37;100158.75;;;16.02;62.37
72414;BME280;60995;52.154;4.498;2022-11-03T12:40:53;100152.13;;;16.12;62.78
72414;BME280;60995;52.154;4.498;2022-11-03T12:43:09;100144.75;;;16.27;61.96
72414;BME280;60995;52.154;4.498;2022-11-03T12:45:25;100141.47;;;16.17;62.29
72414;BME280;60995;52.154;4.498;2022-11-03T12:47:41;100139.81;;;16.37;61.72
72414;BME280;60995;52.154;4.498;2022-11-03T12:49:57;100127.91;;;16.67;60.60
72414;BME280;60995;52.154;4.498;2022-11-03T12:52:14;100126.59;;;16.63;60.66
72414;BME280;60995;52.154;4.498;2022-11-03T12:54:30;100114.41;;;16.65;61.09
72414;BME280;60995;52.154;4.498;2022-11-03T12:56:47;100106.69;;;17.19;59.09
72414;BME280;60995;52.154;4.498;2022-11-03T12:59:03;100115.91;;;17.40;58.40
72414;BME280;60995;52.154;4.498;2022-11-03T13:01:19;100119.66;;;17.32;58.58
72414;BME280;60995;52.154;4.498;2022-11-03T13:03:35;100105.28;;;17.65;57.89